Time,TemperatureF,DewpointF,PressureIn,WindDirection,WindDirectionDegrees,WindSpeedMPH,WindSpeedGustMPH,Humidity,HourlyPrecipIn,Conditions,Clouds,dailyrainin,SoftwareType,DateUTC
2013-07-04 00:02:00,78.0,75.0,30.23,SW,223,5.0,5.0,91,0.00,,,0.11,,2013-07-04 04:02:00,
2013-07-04 00:11:00,78.0,75.0,30.23,SW,223,5.0,5.0,91,0.00,,,0.11,,2013-07-04 04:11:00,
2013-07-04 00:22:00,78.0,75.0,30.23,SW,234,1.0,1.0,91,0.00,,,0.11,,2013-07-04 04:22:00,
2013-07-04 00:33:00,78.0,75.0,30.23,WSW,249,3.0,3.0,91,0.00,,,0.11,,2013-07-04 04:33:00,
2013-07-04 00:43:00,78.0,75.0,30.23,WSW,249,3.0,3.0,91,0.00,,,0.11,,2013-07-04 04:43:00,
2013-07-04 00:52:00,78.0,75.0,30.22,WSW,246,1.0,1.0,91,0.00,,,0.11,,2013-07-04 04:52:00,
2013-07-04 01:02:00,78.0,75.0,30.22,WSW,246,1.0,1.0,91,0.00,,,0.11,,2013-07-04 05:02:00,
2013-07-04 01:12:00,78.0,75.0,30.22,WSW,240,4.0,4.0,92,0.00,,,0.11,,2013-07-04 05:12:00,
2013-07-04 01:22:00,78.0,76.0,30.22,SW,228,3.0,3.0,93,0.00,,,0.11,,2013-07-04 05:22:00,
2013-07-04 01:33:00,78.0,75.0,30.22,SSW,200,2.0,2.0,92,0.00,,,0.11,,2013-07-04 05:33:00,
2013-07-04 01:43:00,78.0,75.0,30.22,SSW,200,2.0,2.0,92,0.00,,,0.11,,2013-07-04 05:43:00,
2013-07-04 01:52:00,78.0,75.0,30.22,SW,217,3.0,3.0,91,0.00,,,0.11,,2013-07-04 05:52:00,
2013-07-04 02:01:00,78.0,75.0,30.22,WSW,237,3.0,3.0,91,0.00,,,0.11,,2013-07-04 06:01:00,
2013-07-04 02:11:00,78.0,75.0,30.22,WSW,237,3.0,3.0,91,0.00,,,0.11,,2013-07-04 06:11:00,
2013-07-04 02:22:00,78.0,75.0,30.22,SSW,205,0.0,0.0,91,0.00,,,0.11,,2013-07-04 06:22:00,
2013-07-04 02:34:00,77.0,74.0,30.21,SSW,202,0.0,0.0,91,0.00,,,0.11,,2013-07-04 06:34:00,
2013-07-04 02:43:00,77.0,74.0,30.21,SSW,202,0.0,0.0,91,0.00,,,0.11,,2013-07-04 06:43:00,
2013-07-04 02:53:00,77.0,74.0,30.21,SSW,203,1.0,1.0,92,0.00,,,0.11,,2013-07-04 06:53:00,
2013-07-04 03:02:00,77.0,75.0,30.21,SW,216,1.0,1.0,93,0.00,,,0.11,,2013-07-04 07:02:00,
2013-07-04 03:12:00,77.0,75.0,30.21,SW,216,1.0,1.0,93,0.00,,,0.11,,2013-07-04 07:12:00,
2013-07-04 03:22:00,77.0,75.0,30.21,SW,231,3.0,3.0,93,0.00,,,0.11,,2013-07-04 07:22:00,
2013-07-04 03:34:00,77.0,75.0,30.21,SW,221,0.0,0.0,93,0.00,,,0.11,,2013-07-04 07:34:00,
2013-07-04 03:43:00,77.0,75.0,30.21,SW,221,0.0,0.0,93,0.00,,,0.11,,2013-07-04 07:43:00,
2013-07-04 03:52:00,77.0,75.0,30.21,WSW,238,0.0,0.0,93,0.00,,,0.11,,2013-07-04 07:52:00,
2013-07-04 04:02:00,77.0,75.0,30.21,SSW,197,2.0,2.0,93,0.00,,,0.11,,2013-07-04 08:02:00,
2013-07-04 04:12:00,77.0,75.0,30.21,SSW,197,2.0,2.0,93,0.00,,,0.11,,2013-07-04 08:12:00,
2013-07-04 04:22:00,77.0,75.0,30.21,SW,223,2.0,2.0,93,0.00,,,0.11,,2013-07-04 08:22:00,
2013-07-04 04:33:00,77.0,75.0,30.21,SSW,207,2.0,2.0,93,0.00,,,0.11,,2013-07-04 08:33:00,
2013-07-04 04:42:00,77.0,75.0,30.21,SSW,207,2.0,2.0,93,0.00,,,0.11,,2013-07-04 08:42:00,
2013-07-04 04:53:00,77.0,75.0,30.22,West,267,2.0,2.0,93,0.00,,,0.11,,2013-07-04 08:53:00,
2013-07-04 05:02:00,77.0,75.0,30.22,SSW,192,3.0,3.0,93,0.00,,,0.11,,2013-07-04 09:02:00,
2013-07-04 05:11:00,77.0,75.0,30.22,SSW,192,3.0,3.0,93,0.00,,,0.11,,2013-07-04 09:11:00,
2013-07-04 05:22:00,77.0,74.0,30.22,SSW,205,3.0,3.0,92,0.00,,,0.11,,2013-07-04 09:22:00,
2013-07-04 05:42:00,77.0,75.0,30.23,South,190,0.0,0.0,93,0.00,,,0.11,,2013-07-04 09:42:00,
2013-07-04 05:52:00,77.0,75.0,30.23,SW,225,2.0,2.0,93,0.00,,,0.11,,2013-07-04 09:52:00,
2013-07-04 06:01:00,77.0,74.0,30.23,SW,229,3.0,3.0,92,0.00,,,0.11,,2013-07-04 10:01:00,
2013-07-04 06:11:00,77.0,74.0,30.23,SW,229,3.0,3.0,92,0.00,,,0.11,,2013-07-04 10:11:00,
2013-07-04 06:22:00,77.0,74.0,30.23,SW,220,1.0,1.0,92,0.00,,,0.11,,2013-07-04 10:22:00,
2013-07-04 06:43:00,77.0,75.0,30.23,SSW,213,0.0,0.0,93,0.00,,,0.11,,2013-07-04 10:43:00,
2013-07-04 06:53:00,77.0,75.0,30.24,South,186,0.0,0.0,93,0.00,,,0.11,,2013-07-04 10:53:00,
2013-07-04 07:02:00,77.0,74.0,30.24,SSW,192,2.0,2.0,92,0.00,,,0.11,,2013-07-04 11:02:00,
2013-07-04 07:12:00,77.0,74.0,30.24,SSW,192,2.0,2.0,92,0.00,,,0.11,,2013-07-04 11:12:00,
2013-07-04 07:22:00,77.0,74.0,30.24,SW,216,0.0,0.0,92,0.00,,,0.11,,2013-07-04 11:22:00,
2013-07-04 07:34:00,77.0,74.0,30.24,SW,232,1.0,1.0,92,0.00,,,0.11,,2013-07-04 11:34:00,
2013-07-04 07:43:00,77.0,74.0,30.24,SW,232,1.0,1.0,92,0.00,,,0.11,,2013-07-04 11:43:00,
2013-07-04 07:53:00,77.0,74.0,30.24,South,190,1.0,1.0,91,0.00,,,0.11,,2013-07-04 11:53:00,
2013-07-04 08:02:00,77.0,74.0,30.24,South,190,1.0,1.0,91,0.00,,,0.11,,2013-07-04 12:02:00,
2013-07-04 08:12:00,77.0,74.0,30.25,SW,221,4.0,4.0,91,0.00,,,0.11,,2013-07-04 12:12:00,
2013-07-04 08:22:00,77.0,74.0,30.25,SSW,202,2.0,2.0,91,0.00,,,0.11,,2013-07-04 12:22:00,
2013-07-04 08:33:00,78.0,75.0,30.25,SW,224,3.0,3.0,91,0.00,,,0.11,,2013-07-04 12:33:00,
2013-07-04 08:43:00,78.0,75.0,30.25,SW,224,3.0,3.0,91,0.00,,,0.11,,2013-07-04 12:43:00,
2013-07-04 08:52:00,78.0,75.0,30.26,SW,225,4.0,4.0,90,0.00,,,0.11,,2013-07-04 12:52:00,
2013-07-04 09:12:00,78.0,74.0,30.26,SW,219,2.0,2.0,89,0.00,,,0.11,,2013-07-04 13:12:00,
2013-07-04 09:23:00,79.0,75.0,30.26,South,183,2.0,2.0,87,0.00,,,0.11,,2013-07-04 13:23:00,
2013-07-04 09:33:00,79.0,75.0,30.25,WSW,240,3.0,3.0,87,0.00,,,0.11,,2013-07-04 13:33:00,
2013-07-04 09:43:00,79.0,75.0,30.25,WSW,240,3.0,3.0,87,0.00,,,0.11,,2013-07-04 13:43:00,
2013-07-04 09:53:00,79.0,75.0,30.26,SW,231,4.0,4.0,88,0.00,,,0.11,,2013-07-04 13:53:00,
2013-07-04 10:02:00,79.0,75.0,30.25,WSW,246,6.0,6.0,87,0.00,,,0.11,,2013-07-04 14:02:00,
2013-07-04 10:12:00,79.0,75.0,30.25,WSW,246,6.0,6.0,87,0.00,,,0.11,,2013-07-04 14:12:00,
2013-07-04 10:22:00,79.0,75.0,30.25,SSW,208,4.0,4.0,87,0.00,,,0.11,,2013-07-04 14:22:00,
2013-07-04 10:43:00,79.0,75.0,30.25,WSW,242,4.0,4.0,87,0.00,,,0.11,,2013-07-04 14:43:00,
2013-07-04 10:53:00,80.0,76.0,30.25,WSW,246,7.0,7.0,87,0.00,,,0.11,,2013-07-04 14:53:00,
2013-07-04 11:02:00,80.0,76.0,30.25,WSW,246,7.0,7.0,87,0.00,,,0.11,,2013-07-04 15:02:00,
2013-07-04 11:11:00,80.0,76.0,30.25,WSW,248,6.0,6.0,87,0.00,,,0.11,,2013-07-04 15:11:00,
2013-07-04 11:23:00,80.0,75.0,30.25,WSW,253,7.0,7.0,86,0.00,,,0.11,,2013-07-04 15:23:00,
2013-07-04 11:33:00,80.0,75.0,30.25,West,259,6.0,6.0,86,0.00,,,0.11,,2013-07-04 15:33:00,
2013-07-04 11:43:00,80.0,75.0,30.25,West,259,6.0,6.0,86,0.00,,,0.11,,2013-07-04 15:43:00,
2013-07-04 11:53:00,81.0,76.0,30.25,WSW,250,8.0,8.0,86,0.00,,,0.11,,2013-07-04 15:53:00,
2013-07-04 12:02:00,81.0,76.0,30.25,WSW,243,5.0,5.0,85,0.00,,,0.11,,2013-07-04 16:02:00,
2013-07-04 12:11:00,81.0,76.0,30.25,WSW,243,5.0,5.0,85,0.00,,,0.11,,2013-07-04 16:11:00,
2013-07-04 12:22:00,81.0,76.0,30.25,WSW,240,5.0,5.0,84,0.00,,,0.11,,2013-07-04 16:22:00,
2013-07-04 12:33:00,82.0,76.0,30.25,WSW,248,5.0,5.0,83,0.00,,,0.11,,2013-07-04 16:33:00,
2013-07-04 12:43:00,82.0,76.0,30.25,WSW,248,5.0,5.0,83,0.00,,,0.11,,2013-07-04 16:43:00,
2013-07-04 12:52:00,83.0,77.0,30.25,WSW,258,4.0,4.0,82,0.00,,,0.11,,2013-07-04 16:52:00,
2013-07-04 13:02:00,83.0,77.0,30.25,West,272,7.0,7.0,81,0.00,,,0.11,,2013-07-04 17:02:00,
2013-07-04 13:12:00,83.0,77.0,30.25,West,272,7.0,7.0,81,0.00,,,0.11,,2013-07-04 17:12:00,
2013-07-04 13:22:00,83.0,76.0,30.24,WSW,252,5.0,5.0,80,0.00,,,0.11,,2013-07-04 17:22:00,
2013-07-04 13:34:00,84.0,78.0,30.24,WSW,254,10.0,10.0,81,0.00,,,0.11,,2013-07-04 17:34:00,
2013-07-04 13:43:00,84.0,78.0,30.24,WSW,254,10.0,10.0,81,0.00,,,0.11,,2013-07-04 17:43:00,
2013-07-04 13:53:00,84.0,77.0,30.24,West,267,6.0,6.0,80,0.00,,,0.11,,2013-07-04 17:53:00,
2013-07-04 14:01:00,84.0,77.0,30.24,WSW,244,10.0,10.0,80,0.00,,,0.11,,2013-07-04 18:01:00,
2013-07-04 14:11:00,84.0,77.0,30.24,WSW,244,10.0,10.0,80,0.00,,,0.11,,2013-07-04 18:11:00,
2013-07-04 14:22:00,84.0,77.0,30.23,West,267,7.0,7.0,80,0.00,,,0.11,,2013-07-04 18:22:00,
2013-07-04 14:33:00,85.0,77.0,30.24,WSW,248,4.0,4.0,78,0.00,,,0.11,,2013-07-04 18:33:00,
2013-07-04 14:43:00,85.0,77.0,30.24,WSW,248,4.0,4.0,78,0.00,,,0.11,,2013-07-04 18:43:00,
2013-07-04 14:52:00,85.0,78.0,30.23,NW,304,4.0,4.0,79,0.00,,,0.11,,2013-07-04 18:52:00,
2013-07-04 15:02:00,86.0,78.0,30.22,WSW,254,7.0,7.0,76,0.00,,,0.11,,2013-07-04 19:02:00,
2013-07-04 15:12:00,86.0,78.0,30.22,WSW,254,7.0,7.0,76,0.00,,,0.11,,2013-07-04 19:12:00,
2013-07-04 15:22:00,86.0,77.0,30.22,West,270,7.0,7.0,75,0.00,,,0.11,,2013-07-04 19:22:00,
2013-07-04 15:33:00,86.0,77.0,30.21,WSW,249,6.0,6.0,75,0.00,,,0.11,,2013-07-04 19:33:00,
2013-07-04 15:43:00,86.0,77.0,30.21,WSW,249,6.0,6.0,75,0.00,,,0.11,,2013-07-04 19:43:00,
2013-07-04 15:53:00,86.0,77.0,30.20,WSW,249,6.0,6.0,75,0.00,,,0.11,,2013-07-04 19:53:00,
2013-07-04 16:02:00,86.0,76.0,30.20,WSW,246,6.0,6.0,73,0.00,,,0.11,,2013-07-04 20:02:00,
2013-07-04 16:11:00,86.0,76.0,30.20,WSW,246,6.0,6.0,73,0.00,,,0.11,,2013-07-04 20:11:00,
2013-07-04 16:22:00,87.0,77.0,30.21,WSW,243,4.0,4.0,73,0.00,,,0.11,,2013-07-04 20:22:00,
2013-07-04 16:34:00,87.0,77.0,30.20,WSW,253,7.0,7.0,72,0.00,,,0.11,,2013-07-04 20:34:00,
2013-07-04 16:42:00,87.0,77.0,30.20,WSW,253,7.0,7.0,72,0.00,,,0.11,,2013-07-04 20:42:00,
2013-07-04 16:53:00,87.0,76.0,30.19,West,280,7.0,7.0,71,0.00,,,0.11,,2013-07-04 20:53:00,
2013-07-04 17:01:00,87.0,76.0,30.19,WSW,242,5.0,5.0,71,0.00,,,0.11,,2013-07-04 21:01:00,
2013-07-04 17:12:00,87.0,76.0,30.19,WSW,242,5.0,5.0,71,0.00,,,0.11,,2013-07-04 21:12:00,
2013-07-04 17:22:00,87.0,76.0,30.18,WSW,244,7.0,7.0,71,0.00,,,0.11,,2013-07-04 21:22:00,
2013-07-04 17:32:00,87.0,76.0,30.18,WSW,257,6.0,6.0,71,0.00,,,0.11,,2013-07-04 21:32:00,
2013-07-04 17:43:00,87.0,76.0,30.18,WSW,257,6.0,6.0,71,0.00,,,0.11,,2013-07-04 21:43:00,
2013-07-04 17:53:00,87.0,76.0,30.18,West,261,4.0,4.0,71,0.00,,,0.11,,2013-07-04 21:53:00,
2013-07-04 18:02:00,87.0,77.0,30.17,WSW,252,4.0,4.0,72,0.00,,,0.11,,2013-07-04 22:02:00,
2013-07-04 18:12:00,87.0,77.0,30.17,WSW,252,4.0,4.0,72,0.00,,,0.11,,2013-07-04 22:12:00,
2013-07-04 18:22:00,87.0,77.0,30.17,WSW,246,7.0,7.0,73,0.00,,,0.11,,2013-07-04 22:22:00,
2013-07-04 18:33:00,87.0,77.0,30.17,South,179,7.0,7.0,73,0.00,,,0.01,,2013-07-04 22:33:00,
2013-07-04 18:43:00,87.0,77.0,30.17,South,179,7.0,7.0,73,0.00,,,0.01,,2013-07-04 22:43:00,
2013-07-04 18:52:00,87.0,78.0,30.18,WSW,248,6.0,6.0,74,0.00,,,0.01,,2013-07-04 22:52:00,
2013-07-04 19:01:00,86.0,77.0,30.17,West,269,5.0,5.0,75,0.00,,,0.01,,2013-07-04 23:01:00,
2013-07-04 19:12:00,86.0,77.0,30.17,West,269,5.0,5.0,75,0.00,,,0.01,,2013-07-04 23:12:00,
2013-07-04 19:23:00,86.0,77.0,30.18,WSW,256,5.0,5.0,75,0.00,,,0.01,,2013-07-04 23:23:00,
2013-07-04 19:33:00,86.0,78.0,30.18,WNW,297,4.0,4.0,76,0.00,,,0.01,,2013-07-04 23:33:00,
2013-07-04 19:43:00,86.0,78.0,30.18,WNW,297,4.0,4.0,76,0.00,,,0.01,,2013-07-04 23:43:00,
2013-07-04 19:52:00,85.0,77.0,30.18,WSW,246,5.0,5.0,76,0.00,,,0.01,,2013-07-04 23:52:00,
2013-07-04 20:01:00,84.0,76.0,30.18,WSW,248,7.0,7.0,78,0.00,,,0.01,,2013-07-05 00:01:00,
2013-07-04 20:12:00,84.0,76.0,30.18,WSW,248,7.0,7.0,78,0.00,,,0.01,,2013-07-05 00:12:00,
2013-07-04 20:22:00,84.0,77.0,30.18,West,260,6.0,6.0,80,0.00,,,0.01,,2013-07-05 00:22:00,
2013-07-04 20:32:00,83.0,77.0,30.18,WSW,253,5.0,5.0,81,0.00,,,0.00,,2013-07-05 00:32:00,
2013-07-04 20:43:00,83.0,77.0,30.18,WSW,253,5.0,5.0,81,0.00,,,0.00,,2013-07-05 00:43:00,
2013-07-04 20:52:00,83.0,78.0,30.18,WSW,252,4.0,4.0,84,0.00,,,0.00,,2013-07-05 00:52:00,
2013-07-04 21:01:00,83.0,78.0,30.18,WSW,252,4.0,4.0,84,0.00,,,0.00,,2013-07-05 01:01:00,
2013-07-04 21:11:00,83.0,78.0,30.18,WSW,252,4.0,4.0,84,0.00,,,0.00,,2013-07-05 01:11:00,
2013-07-04 21:22:00,82.0,77.0,30.18,WNW,284,5.0,5.0,84,0.00,,,0.00,,2013-07-05 01:22:00,
2013-07-04 21:32:00,82.0,77.0,30.18,WNW,284,5.0,5.0,84,0.00,,,0.00,,2013-07-05 01:32:00,
2013-07-04 21:42:00,82.0,77.0,30.18,WNW,284,5.0,5.0,84,0.00,,,0.00,,2013-07-05 01:42:00,
2013-07-04 21:52:00,81.0,76.0,30.19,WNW,290,4.0,4.0,84,0.00,,,0.00,,2013-07-05 01:52:00,
2013-07-04 22:02:00,81.0,76.0,30.19,WNW,290,4.0,4.0,84,0.00,,,0.00,,2013-07-05 02:02:00,
2013-07-04 22:11:00,81.0,76.0,30.19,WNW,290,4.0,4.0,84,0.00,,,0.00,,2013-07-05 02:11:00,
2013-07-04 22:22:00,81.0,76.0,30.19,SW,236,1.0,1.0,85,0.00,,,0.00,,2013-07-05 02:22:00,
2013-07-04 22:32:00,81.0,76.0,30.19,SW,236,1.0,1.0,85,0.00,,,0.00,,2013-07-05 02:32:00,
2013-07-04 22:43:00,81.0,76.0,30.19,SW,236,1.0,1.0,85,0.00,,,0.00,,2013-07-05 02:43:00,
2013-07-04 22:53:00,81.0,76.0,30.19,SW,236,1.0,1.0,85,0.00,,,0.00,,2013-07-05 02:53:00,
2013-07-04 23:22:00,80.0,76.0,30.21,East,82,3.0,3.0,87,0.00,,,0.00,,2013-07-05 03:22:00,
2013-07-04 23:33:00,80.0,76.0,30.21,East,82,3.0,3.0,87,0.00,,,0.00,,2013-07-05 03:33:00,
2013-07-04 23:42:00,80.0,76.0,30.21,East,82,3.0,3.0,87,0.00,,,0.00,,2013-07-05 03:42:00,
2013-07-04 23:52:00,80.0,76.0,30.21,East,82,3.0,3.0,87,0.00,,,0.00,,2013-07-05 03:52:00,